createdAt,value
2022-11-14T00:01:40.663Z,5.90
2022-11-14T00:05:43.439Z,5.90
2022-11-14T00:09:45.037Z,5.90
2022-11-14T00:13:47.128Z,6.10
2022-11-14T00:17:48.757Z,6.00
2022-11-14T00:21:52.502Z,5.80
2022-11-14T00:25:54.123Z,5.70
2022-11-14T00:29:55.766Z,5.70
2022-11-14T00:33:57.815Z,5.70
2022-11-14T00:37:59.600Z,6.00
2022-11-14T00:42:01.250Z,6.30
2022-11-14T00:46:02.866Z,6.50
2022-11-14T00:50:04.688Z,6.50
2022-11-14T00:54:06.270Z,6.40
2022-11-14T00:58:07.922Z,6.20
2022-11-14T01:02:09.517Z,6.10
2022-11-14T01:06:11.689Z,5.60
2022-11-14T01:10:14.410Z,5.60
2022-11-14T01:14:16.046Z,5.70
2022-11-14T01:18:19.404Z,5.50
2022-11-14T01:22:21.019Z,5.50
2022-11-14T01:26:22.751Z,5.50
2022-11-14T01:30:24.402Z,5.40
2022-11-14T01:34:26.646Z,5.40
2022-11-14T01:38:28.689Z,5.00
2022-11-14T01:42:30.482Z,5.20
2022-11-14T01:46:34.501Z,5.30
2022-11-14T01:50:36.098Z,5.30
2022-11-14T01:54:38.850Z,5.10
2022-11-14T01:58:42.008Z,5.10
2022-11-14T02:02:43.800Z,4.80
2022-11-14T02:06:46.181Z,4.80
2022-11-14T02:10:47.920Z,4.90
2022-11-14T02:14:51.266Z,4.80
2022-11-14T02:18:52.898Z,4.90
2022-11-14T02:22:54.766Z,4.90
2022-11-14T02:26:56.492Z,5.10
2022-11-14T02:30:58.125Z,4.70
2022-11-14T02:34:59.805Z,4.70
2022-11-14T02:39:03.940Z,4.80
2022-11-14T02:43:05.665Z,4.90
2022-11-14T02:47:07.279Z,4.60
2022-11-14T02:51:08.958Z,4.60
2022-11-14T02:55:13.023Z,4.80
2022-11-14T02:59:14.963Z,4.60
2022-11-14T03:03:16.618Z,4.40
2022-11-14T03:07:18.330Z,4.40
2022-11-14T03:11:19.975Z,4.40
2022-11-14T03:15:23.263Z,4.20
2022-11-14T03:19:24.869Z,4.20
2022-11-14T03:23:26.480Z,4.40
2022-11-14T03:27:28.331Z,4.40
2022-11-14T03:31:29.951Z,4.30
2022-11-14T03:35:31.501Z,4.20
2022-11-14T03:39:33.076Z,3.90
2022-11-14T03:43:34.862Z,3.80
2022-11-14T03:47:36.445Z,3.80
2022-11-14T03:51:38.157Z,3.80
2022-11-14T03:55:40.170Z,4.00
2022-11-14T03:59:41.752Z,3.90
2022-11-14T04:03:43.370Z,4.00
2022-11-14T04:07:45.003Z,4.10
2022-11-14T04:11:46.587Z,3.90
2022-11-14T04:15:53.928Z,4.00
2022-11-14T04:19:55.543Z,4.10
2022-11-14T04:23:57.154Z,4.00
2022-11-14T04:27:58.778Z,4.00
2022-11-14T04:32:00.446Z,4.30
2022-11-14T04:36:02.050Z,4.30
2022-11-14T04:40:04.221Z,4.40
2022-11-14T04:44:05.846Z,4.50
2022-11-14T04:48:07.454Z,4.40
2022-11-14T04:52:08.981Z,4.40
2022-11-14T04:56:10.576Z,4.30
2022-11-14T05:00:13.007Z,4.50
2022-11-14T05:04:14.733Z,4.30
2022-11-14T05:08:16.397Z,4.30
2022-11-14T05:12:18.067Z,4.30
2022-11-14T05:16:19.819Z,4.10
2022-11-14T05:20:21.613Z,3.90
2022-11-14T05:24:23.195Z,3.90
2022-11-14T05:28:24.845Z,4.00
2022-11-14T05:32:26.745Z,4.00
2022-11-14T05:36:28.437Z,4.00
2022-11-14T05:40:30.088Z,4.00
2022-11-14T05:44:31.844Z,4.10
2022-11-14T05:48:33.738Z,4.20
2022-11-14T05:52:35.653Z,4.20
2022-11-14T05:56:37.330Z,4.10
2022-11-14T06:00:46.536Z,4.20
2022-11-14T06:04:52.538Z,4.20
2022-11-14T06:08:54.165Z,4.50
2022-11-14T06:12:55.800Z,4.50
2022-11-14T06:16:57.430Z,4.70
2022-11-14T06:21:00.011Z,4.70
2022-11-14T06:25:04.933Z,4.60
2022-11-14T06:29:07.618Z,4.60
2022-11-14T06:33:09.379Z,4.70
2022-11-14T06:37:11.004Z,4.70
2022-11-14T06:41:18.964Z,4.60
2022-11-14T06:45:20.563Z,4.60
2022-11-14T06:49:22.688Z,4.70
2022-11-14T06:53:24.962Z,4.70
2022-11-14T06:57:26.678Z,4.80
2022-11-14T07:01:29.315Z,4.90
2022-11-14T07:05:30.884Z,5.00
2022-11-14T07:09:32.458Z,5.10
2022-11-14T07:13:34.741Z,5.30
2022-11-14T07:17:36.461Z,5.40
2022-11-14T07:21:39.245Z,5.50
2022-11-14T07:25:48.484Z,5.60
2022-11-14T07:29:52.012Z,5.60
2022-11-14T07:34:03.631Z,5.70
2022-11-14T07:38:06.639Z,5.80
2022-11-14T07:42:09.294Z,5.80
2022-11-14T07:46:25.191Z,5.90
2022-11-14T07:50:39.566Z,5.90
2022-11-14T07:54:42.484Z,5.80
2022-11-14T07:58:44.296Z,5.90
2022-11-14T08:02:48.064Z,5.80
2022-11-14T08:06:51.273Z,5.80
2022-11-14T08:10:57.469Z,5.90
2022-11-14T08:15:16.467Z,5.90
2022-11-14T08:19:28.019Z,5.90
2022-11-14T08:23:38.761Z,5.90
2022-11-14T08:27:56.700Z,5.80
2022-11-14T08:32:09.946Z,5.80
2022-11-14T08:36:22.739Z,5.80
2022-11-14T08:44:50.738Z,5.90
2022-11-14T08:48:55.104Z,6.00
2022-11-14T08:53:11.542Z,6.00
2022-11-14T08:57:18.326Z,5.90
2022-11-14T09:05:53.951Z,6.10
2022-11-14T09:09:56.944Z,6.20
2022-11-14T09:13:59.277Z,6.20
2022-11-14T09:18:00.983Z,6.30
2022-11-14T09:22:03.704Z,6.40
2022-11-14T09:26:09.574Z,6.50
2022-11-14T09:30:13.010Z,6.60
2022-11-14T09:34:15.093Z,6.70
2022-11-14T09:38:17.329Z,6.70
2022-11-14T09:42:23.522Z,6.90
2022-11-14T09:46:33.245Z,7.00
2022-11-14T09:50:38.280Z,7.00
2022-11-14T09:54:51.220Z,7.10
2022-11-14T09:58:56.666Z,7.20
2022-11-14T10:03:33.184Z,7.30
2022-11-14T10:07:36.181Z,7.40
2022-11-14T10:11:51.108Z,7.50
2022-11-14T10:16:11.714Z,7.50
2022-11-14T10:20:20.053Z,7.50
2022-11-14T10:24:42.314Z,7.60
2022-11-14T10:28:46.936Z,7.70
2022-11-14T10:32:56.175Z,7.80
2022-11-14T10:36:59.073Z,7.80
2022-11-14T10:41:02.858Z,7.90
2022-11-14T10:45:07.910Z,7.90
2022-11-14T10:49:17.970Z,8.10
2022-11-14T10:53:38.669Z,8.10
2022-11-14T10:57:42.713Z,8.30
2022-11-14T11:01:46.410Z,8.50
2022-11-14T11:05:54.837Z,8.60
2022-11-14T11:10:19.019Z,8.60
2022-11-14T11:14:20.905Z,8.80
2022-11-14T11:18:27.803Z,8.90
2022-11-14T11:22:36.003Z,9.00
2022-11-14T11:26:48.893Z,9.00
2022-11-14T11:30:58.232Z,9.00
2022-11-14T11:35:20.388Z,9.00
2022-11-14T11:39:44.644Z,8.90
2022-11-14T11:43:56.713Z,9.00
2022-11-14T11:48:06.172Z,8.90
2022-11-14T11:52:34.173Z,9.00
2022-11-14T11:56:47.254Z,9.00
2022-11-14T12:00:59.654Z,9.00
2022-11-14T12:05:16.365Z,8.90
2022-11-14T12:10:08.184Z,8.80
2022-11-14T12:14:16.094Z,8.80
2022-11-14T12:18:24.197Z,8.70
2022-11-14T12:22:57.157Z,8.70
2022-11-14T12:27:22.198Z,8.90
2022-11-14T12:31:28.888Z,9.00
2022-11-14T12:35:39.694Z,9.00
2022-11-14T12:39:49.172Z,8.90
2022-11-14T12:44:03.895Z,8.90
2022-11-14T12:48:24.934Z,8.80
2022-11-14T12:53:16.223Z,8.90
2022-11-14T13:02:22.335Z,9.00
2022-11-14T13:06:26.855Z,8.80
2022-11-14T13:10:34.122Z,8.80
2022-11-14T13:15:11.553Z,8.80
2022-11-14T13:19:40.416Z,8.70
2022-11-14T13:23:42.015Z,8.60
2022-11-14T13:32:09.842Z,8.50
2022-11-14T13:36:13.931Z,8.60
2022-11-14T13:40:34.491Z,8.50
2022-11-14T13:44:36.560Z,8.50
2022-11-14T13:49:01.838Z,8.50
2022-11-14T13:53:11.171Z,8.40
2022-11-14T13:57:21.409Z,8.60
2022-11-14T14:01:29.446Z,8.60
2022-11-14T14:05:50.184Z,8.60
2022-11-14T14:10:10.263Z,8.60
2022-11-14T14:14:24.331Z,8.60
2022-11-14T14:18:32.089Z,8.60
2022-11-14T14:22:34.173Z,8.50
2022-11-14T14:26:49.213Z,8.50
2022-11-14T14:31:04.449Z,8.70
2022-11-14T14:35:25.400Z,8.50
2022-11-14T14:39:28.192Z,8.60
2022-11-14T14:43:34.108Z,8.60
2022-11-14T14:47:43.327Z,8.60
2022-11-14T14:51:53.291Z,8.60
2022-11-14T14:56:04.749Z,8.60
2022-11-14T15:00:08.597Z,8.50
2022-11-14T15:04:15.595Z,8.60
2022-11-14T15:08:19.948Z,8.50
2022-11-14T15:12:28.993Z,8.40
2022-11-14T15:16:40.636Z,8.40
2022-11-14T15:21:07.878Z,8.40
2022-11-14T15:25:13.126Z,8.40
2022-11-14T15:29:30.851Z,8.40
2022-11-14T15:33:34.131Z,8.40
2022-11-14T15:37:36.903Z,8.40
2022-11-14T15:41:43.390Z,8.30
2022-11-14T15:45:45.312Z,8.30
2022-11-14T15:50:05.593Z,8.20
2022-11-14T15:54:24.716Z,8.20
2022-11-14T15:58:33.276Z,8.20
2022-11-14T16:02:47.549Z,8.20
2022-11-14T16:06:49.556Z,8.20
2022-11-14T16:10:53.783Z,8.20
2022-11-14T16:15:04.598Z,8.20
2022-11-14T16:19:06.719Z,8.20
2022-11-14T16:23:16.156Z,8.10
2022-11-14T16:27:24.631Z,8.10
2022-11-14T16:31:26.572Z,8.10
2022-11-14T16:35:31.523Z,8.00
2022-11-14T16:39:42.464Z,8.00
2022-11-14T16:43:44.251Z,8.00
2022-11-14T16:47:46.000Z,8.00
2022-11-14T16:51:51.067Z,7.90
2022-11-14T16:56:02.435Z,8.00
2022-11-14T17:00:16.091Z,7.90
2022-11-14T17:04:23.136Z,7.90
2022-11-14T17:08:26.075Z,7.90
2022-11-14T17:12:28.473Z,7.90
2022-11-14T17:16:30.392Z,7.90
2022-11-14T17:20:39.807Z,7.90
2022-11-14T17:24:44.201Z,7.90
2022-11-14T17:28:55.815Z,7.90
2022-11-14T17:32:59.279Z,7.90
2022-11-14T17:37:05.404Z,7.90
2022-11-14T17:41:07.310Z,7.90
2022-11-14T17:45:09.141Z,7.90
2022-11-14T17:49:10.805Z,7.90
2022-11-14T17:53:12.498Z,8.00
2022-11-14T17:57:15.472Z,8.00
2022-11-14T18:01:20.773Z,8.00
2022-11-14T18:05:22.697Z,8.00
2022-11-14T18:09:24.417Z,8.00
2022-11-14T18:13:26.075Z,7.90
2022-11-14T18:17:27.733Z,7.90
2022-11-14T18:21:29.605Z,8.00
2022-11-14T18:25:32.590Z,8.00
2022-11-14T18:29:34.442Z,8.00
2022-11-14T18:33:36.679Z,8.00
2022-11-14T18:37:38.348Z,8.10
2022-11-14T18:41:39.987Z,8.10
2022-11-14T18:45:41.708Z,8.20
2022-11-14T18:49:43.393Z,8.20
2022-11-14T18:53:45.081Z,8.30
2022-11-14T18:57:47.229Z,8.40
2022-11-14T19:01:48.930Z,8.50
2022-11-14T19:05:50.634Z,8.60
2022-11-14T19:09:52.280Z,8.60
2022-11-14T19:13:54.023Z,8.70
2022-11-14T19:17:55.629Z,8.80
2022-11-14T19:21:57.641Z,8.80
2022-11-14T19:26:01.878Z,8.90
2022-11-14T19:30:04.000Z,9.10
2022-11-14T19:34:05.936Z,9.30
2022-11-14T19:38:07.797Z,9.40
2022-11-14T19:42:09.444Z,9.50
2022-11-14T19:46:11.528Z,9.60
2022-11-14T19:50:14.722Z,9.70
2022-11-14T19:54:16.405Z,9.80
2022-11-14T19:58:18.060Z,9.90
2022-11-14T20:02:20.359Z,10.00
2022-11-14T20:06:23.430Z,10.00
2022-11-14T20:10:25.243Z,10.20
2022-11-14T20:14:27.132Z,10.30
2022-11-14T20:18:29.109Z,10.40
2022-11-14T20:22:33.567Z,10.40
2022-11-14T20:26:35.976Z,10.50
2022-11-14T20:30:40.636Z,10.60
2022-11-14T20:34:52.287Z,10.60
2022-11-14T20:38:54.904Z,10.70
2022-11-14T20:42:56.907Z,10.80
2022-11-14T20:46:58.844Z,10.80
2022-11-14T20:51:04.905Z,10.90
